Time;durP1;ratioP1;P1;durP2;ratioP2;P2;SDS_P1;SDS_P2;PMS_P1;PMS_P2;Temp;Humidity;BMP_temperature;BMP_pressure;BME280_temperature;BME280_humidity;BME280_pressure;Samples;Min_cycle;Max_cycle;Signal;HPM_P1;HPM_P2
2022/01/02 00:01:00;;;;;;;2.85;0.75;;;;;;;13.08;100.00;99217.09;6243157;22;20027;-48
2022/01/02 00:04:04;;;;;;;2.33;0.45;;;;;;;13.05;100.00;99212.56;6243285;22;20031;-47
2022/01/02 00:07:09;;;;;;;7.30;0.75;;;;;;;13.04;100.00;99208.19;6243114;22;20385;-47
2022/01/02 00:10:13;;;;;;;2.20;0.30;;;;;;;13.03;100.00;99206.69;6242900;22;20046;-47
2022/01/02 00:13:33;;;;;;;0.40;0.40;;;;;;;13.02;100.00;99204.38;6242189;22;20043;-47
2022/01/02 00:16:38;;;;;;;0.28;0.28;;;;;;;13.04;100.00;99197.00;6242765;22;20039;-47
2022/01/02 00:19:46;;;;;;;4.18;0.47;;;;;;;13.09;100.00;99199.09;6243617;22;20023;-47
2022/01/02 00:22:51;;;;;;;11.93;0.68;;;;;;;13.07;100.00;99189.69;6242887;22;20038;-47
2022/01/02 00:25:55;;;;;;;7.47;0.52;;;;;;;13.11;100.00;99179.75;6242564;22;20027;-47
2022/01/02 00:29:00;;;;;;;0.57;0.10;;;;;;;13.14;100.00;99184.34;6243094;22;20023;-47
2022/01/02 00:32:06;;;;;;;13.88;0.90;;;;;;;13.18;100.00;99173.66;6243256;22;20023;-48
2022/01/02 00:35:10;;;;;;;8.60;1.75;;;;;;;13.18;100.00;99179.25;6235913;22;20027;-47
2022/01/02 00:38:20;;;;;;;3.72;0.82;;;;;;;13.14;100.00;99167.56;6236203;22;20046;-47
2022/01/02 00:41:35;;;;;;;2.10;0.73;;;;;;;13.17;100.00;99154.59;6242171;22;20043;-47
2022/01/02 00:44:41;;;;;;;1.85;0.90;;;;;;;13.15;100.00;99140.34;6243262;22;20072;-47
2022/01/02 00:47:59;;;;;;;8.52;0.32;;;;;;;13.16;100.00;99127.91;6243140;22;20031;-48
2022/01/02 00:51:05;;;;;;;1.95;0.70;;;;;;;13.12;100.00;99128.19;6242253;22;20031;-47
2022/01/02 00:54:14;;;;;;;3.28;0.60;;;;;;;13.09;100.00;99115.22;6242950;22;20051;-47
2022/01/02 00:57:18;;;;;;;0.40;0.10;;;;;;;13.16;100.00;99105.53;6237034;22;20031;-48
2022/01/02 01:00:23;;;;;;;1.17;0.10;;;;;;;13.12;100.00;99091.84;6244990;22;20047;-47
2022/01/02 01:03:30;;;;;;;11.30;1.27;;;;;;;13.08;100.00;99096.91;6244027;22;20036;-47
2022/01/02 01:06:39;;;;;;;0.17;0.15;;;;;;;13.12;100.00;99097.44;6243218;22;20031;-47
2022/01/02 01:09:43;;;;;;;9.07;1.85;;;;;;;13.07;100.00;99094.63;6242465;22;20489;-47
2022/01/02 01:12:52;;;;;;;0.90;0.65;;;;;;;12.97;100.00;99101.75;6242695;22;20028;-47
2022/01/02 01:15:56;;;;;;;2.65;0.73;;;;;;;12.91;100.00;99096.13;6242863;22;20027;-47
2022/01/02 01:19:02;;;;;;;4.63;0.77;;;;;;;12.90;100.00;99103.03;6243200;22;20047;-47
2022/01/02 01:22:05;;;;;;;1.70;0.40;;;;;;;12.98;100.00;99087.25;6242569;22;20047;-47
2022/01/02 01:25:16;;;;;;;0.82;0.43;;;;;;;12.98;100.00;99076.06;6242642;22;20035;-47
2022/01/02 01:28:20;;;;;;;2.47;0.88;;;;;;;12.94;100.00;99069.97;6241824;22;20031;-47
2022/01/02 01:31:23;;;;;;;0.80;0.45;;;;;;;12.97;100.00;99074.56;6243063;22;20031;-48
2022/01/02 01:34:27;;;;;;;3.88;0.93;;;;;;;12.96;100.00;99084.19;6243807;22;20027;-48
2022/01/02 01:37:31;;;;;;;8.00;1.20;;;;;;;13.01;100.00;99077.84;6243523;22;20023;-47
2022/01/02 01:40:43;;;;;;;6.05;0.47;;;;;;;13.01;100.00;99069.47;6243497;22;20047;-47
2022/01/02 01:44:06;;;;;;;10.38;1.08;;;;;;;13.02;100.00;99062.59;6243104;22;20472;-47
2022/01/02 01:47:09;;;;;;;9.20;1.23;;;;;;;12.97;100.00;99063.38;6242811;22;20031;-47
2022/01/02 01:50:13;;;;;;;0.85;0.73;;;;;;;13.08;100.00;99051.44;6242527;22;20047;-47
2022/01/02 01:53:17;;;;;;;0.65;0.65;;;;;;;13.13;100.00;99048.63;6242928;22;20031;-47
2022/01/02 01:56:20;;;;;;;1.30;0.35;;;;;;;13.24;100.00;99047.81;6243264;22;20031;-48
2022/01/02 01:59:24;;;;;;;9.27;1.30;;;;;;;13.22;100.00;99067.16;6244986;22;20027;-48
2022/01/02 02:02:28;;;;;;;6.22;1.15;;;;;;;13.28;100.00;99065.84;6245502;22;20047;-47
2022/01/02 02:05:32;;;;;;;2.00;0.38;;;;;;;13.28;100.00;99054.66;6244937;22;20023;-47
2022/01/02 02:08:36;;;;;;;2.80;0.73;;;;;;;13.26;100.00;99048.84;6244638;22;20313;-47
2022/01/02 02:11:40;;;;;;;2.25;0.52;;;;;;;13.25;100.00;99036.16;6244488;22;20047;-47
2022/01/02 02:14:43;;;;;;;2.47;0.43;;;;;;;13.29;100.00;99030.28;6243978;22;20027;-47
2022/01/02 02:17:48;;;;;;;10.25;0.30;;;;;;;13.27;100.00;99030.78;6244169;22;20467;-47
2022/01/02 02:20:52;;;;;;;0.22;0.22;;;;;;;13.36;100.00;99030.47;6243885;22;20027;-47
2022/01/02 02:23:55;;;;;;;1.48;0.75;;;;;;;13.42;100.00;99025.66;6244472;22;20023;-47
2022/01/02 02:26:59;;;;;;;0.50;0.17;;;;;;;13.52;100.00;99018.47;6244082;22;20130;-47
2022/01/02 02:30:04;;;;;;;1.08;0.50;;;;;;;13.50;100.00;99018.22;6244687;22;20479;-47
2022/01/02 02:33:09;;;;;;;13.98;1.25;;;;;;;13.49;100.00;99008.31;6244006;22;20035;-47
2022/01/02 02:36:13;;;;;;;2.13;1.15;;;;;;;13.51;100.00;99013.41;6243714;22;20476;-47
2022/01/02 02:39:17;;;;;;;2.75;0.80;;;;;;;13.53;100.00;99006.03;6243866;22;20421;-48
2022/01/02 02:42:31;;;;;;;1.88;1.02;;;;;;;13.52;100.00;99006.53;6245454;22;20031;-48
2022/01/02 02:52:08;;;;;;;8.20;0.98;;;;;;;13.49;100.00;98980.34;6243445;22;20027;-47
2022/01/02 02:55:12;;;;;;;8.27;2.03;;;;;;;13.53;100.00;98974.47;6244190;22;20027;-47
2022/01/02 03:01:39;;;;;;;10.60;1.55;;;;;;;13.42;100.00;98975.31;6242863;22;20035;-47
2022/01/02 03:04:42;;;;;;;5.05;0.85;;;;;;;13.47;100.00;98971.69;6243330;22;20024;-48
2022/01/02 03:07:46;;;;;;;3.75;0.38;;;;;;;13.48;100.00;98970.44;6242882;22;20031;-47
2022/01/02 03:10:49;;;;;;;0.52;0.52;;;;;;;13.47;100.00;98960.50;6243453;22;20027;-48
2022/01/02 03:13:54;;;;;;;0.45;0.43;;;;;;;13.51;100.00;98958.19;6243781;22;20031;-47
2022/01/02 03:16:58;;;;;;;6.65;0.68;;;;;;;13.56;100.00;98951.81;6243483;22;20031;-47
2022/01/02 03:20:02;;;;;;;3.80;0.57;;;;;;;13.58;100.00;98948.50;6243652;22;20028;-47
2022/01/02 03:23:05;;;;;;;2.10;0.95;;;;;;;13.50;100.00;98945.50;6243250;22;20034;-47
2022/01/02 03:26:09;;;;;;;0.13;0.13;;;;;;;13.55;100.00;98944.72;6243501;22;20039;-48
2022/01/02 03:29:13;;;;;;;1.58;1.10;;;;;;;13.60;100.00;98935.50;6243793;22;20464;-48
2022/01/02 03:32:16;;;;;;;0.82;0.77;;;;;;;13.65;100.00;98931.16;6243944;22;20354;-48
2022/01/02 03:35:19;;;;;;;8.68;0.75;;;;;;;13.59;100.00;98941.63;6242905;22;20043;-49
2022/01/02 03:38:23;;;;;;;11.23;0.98;;;;;;;13.59;100.00;98924.84;6244691;22;20349;-50
2022/01/02 03:41:26;;;;;;;0.75;0.38;;;;;;;13.53;100.00;98921.34;6243441;22;20047;-49
2022/01/02 03:44:30;;;;;;;0.80;0.75;;;;;;;13.50;100.00;98914.75;6245204;22;20035;-49
2022/01/02 03:47:34;;;;;;;1.20;0.30;;;;;;;13.51;100.00;98919.03;6244549;22;20027;-49
2022/01/02 03:50:37;;;;;;;0.60;0.52;;;;;;;13.52;100.00;98903.78;6244166;22;20054;-49
2022/01/02 03:53:41;;;;;;;5.85;0.98;;;;;;;13.51;100.00;98898.72;6243961;22;20031;-49
2022/01/02 03:56:47;;;;;;;0.45;0.28;;;;;;;13.53;100.00;98891.34;6243199;22;20027;-49
2022/01/02 03:59:50;;;;;;;8.50;0.75;;;;;;;13.53;100.00;98890.56;6243954;22;20464;-50
2022/01/02 04:02:53;;;;;;;0.45;0.45;;;;;;;13.51;100.00;98877.09;6243656;22;20028;-49
2022/01/02 04:05:56;;;;;;;1.05;0.95;;;;;;;13.54;100.00;98887.25;6242940;22;20329;-50
2022/01/02 04:09:00;;;;;;;3.22;0.52;;;;;;;13.59;100.00;98871.69;6243412;22;20028;-50
2022/01/02 04:12:04;;;;;;;2.67;1.30;;;;;;;13.51;100.00;98868.69;6243018;22;20031;-50
2022/01/02 04:15:09;;;;;;;0.98;0.52;;;;;;;13.43;100.00;98867.75;6204724;23;20342;-50
2022/01/02 04:18:13;;;;;;;7.43;1.13;;;;;;;13.52;100.00;98867.41;6242363;22;20027;-50
2022/01/02 04:21:16;;;;;;;11.32;2.45;;;;;;;13.49;100.00;98857.25;6243009;22;20349;-50
2022/01/02 04:24:20;;;;;;;2.17;0.63;;;;;;;13.38;100.00;98857.34;6242516;22;20031;-51
2022/01/02 04:27:24;;;;;;;10.45;0.77;;;;;;;13.25;100.00;98850.84;6243621;22;20031;-52
2022/01/02 04:30:27;;;;;;;0.10;0.10;;;;;;;13.31;100.00;98840.38;6244815;22;20333;-52
2022/01/02 04:33:30;;;;;;;0.77;0.20;;;;;;;13.23;100.00;98833.81;6243758;22;20023;-50
2022/01/02 04:36:34;;;;;;;12.30;1.05;;;;;;;13.28;100.00;98817.00;6243618;22;20027;-49
2022/01/02 04:39:39;;;;;;;0.65;0.30;;;;;;;13.26;100.00;98818.78;6243362;22;20031;-49
2022/01/02 04:42:42;;;;;;;2.95;0.75;;;;;;;13.24;100.00;98812.97;6243100;22;20027;-50
2022/01/02 04:45:46;;;;;;;1.23;0.57;;;;;;;13.28;100.00;98813.44;6242947;22;20027;-49
2022/01/02 04:48:49;;;;;;;1.55;0.30;;;;;;;13.24;100.00;98812.97;6243276;22;20061;-50
2022/01/02 04:51:53;;;;;;;0.17;0.15;;;;;;;13.30;100.00;98813.66;6242579;22;20456;-50
2022/01/02 04:54:57;;;;;;;2.83;0.20;;;;;;;13.31;100.00;98807.59;6243264;22;20047;-50
2022/01/02 04:58:01;;;;;;;0.10;0.10;;;;;;;13.30;100.00;98805.28;6242779;22;20027;-50
2022/01/02 05:01:07;;;;;;;1.42;0.68;;;;;;;13.25;100.00;98809.66;6242861;22;20373;-50
2022/01/02 05:04:11;;;;;;;4.75;0.52;;;;;;;13.21;100.00;98811.22;6242953;22;20353;-50
2022/01/02 05:07:15;;;;;;;9.07;0.55;;;;;;;13.21;100.00;98809.16;6242470;22;20027;-50
2022/01/02 05:10:19;;;;;;;0.10;0.00;;;;;;;13.20;100.00;98813.25;6242244;22;20039;-51
2022/01/02 05:13:22;;;;;;;5.18;0.35;;;;;;;13.13;100.00;98813.78;6244241;22;20385;-50
2022/01/02 05:16:26;;;;;;;3.50;0.13;;;;;;;13.04;100.00;98807.75;6243886;22;20043;-50
2022/01/02 05:19:30;;;;;;;3.45;0.65;;;;;;;13.03;100.00;98818.16;6242744;22;20031;-50
2022/01/02 05:22:33;;;;;;;0.85;0.40;;;;;;;13.01;100.00;98823.50;6242706;22;20024;-50
2022/01/02 05:25:37;;;;;;;2.55;0.90;;;;;;;13.04;100.00;98828.06;6243091;22;22144;-50
2022/01/02 05:28:40;;;;;;;0.10;0.00;;;;;;;13.06;100.00;98824.78;6243471;22;20035;-50
2022/01/02 05:31:44;;;;;;;0.17;0.13;;;;;;;13.03;100.00;98817.41;6244891;22;20027;-50
2022/01/02 05:34:47;;;;;;;2.28;0.40;;;;;;;13.06;100.00;98819.94;6244927;22;20023;-50
2022/01/02 05:37:51;;;;;;;2.03;0.22;;;;;;;13.05;100.00;98815.63;6244618;22;20357;-50
2022/01/02 05:40:55;;;;;;;1.38;0.65;;;;;;;12.98;100.00;98813.34;6245152;22;20464;-50
2022/01/02 05:43:59;;;;;;;0.38;0.22;;;;;;;12.88;100.00;98821.31;6244626;22;20036;-50
2022/01/02 05:47:03;;;;;;;0.10;0.00;;;;;;;12.71;100.00;98822.66;6245086;22;20075;-50
2022/01/02 05:50:08;;;;;;;0.20;0.20;;;;;;;12.64;100.00;98820.41;6243955;22;20024;-50
2022/01/02 05:53:11;;;;;;;0.38;0.15;;;;;;;12.49;100.00;98829.09;6238249;22;20047;-50
2022/01/02 05:56:15;;;;;;;3.30;0.30;;;;;;;12.39;100.00;98821.53;6244720;22;20031;-50
2022/01/02 05:59:18;;;;;;;6.40;0.38;;;;;;;12.34;100.00;98827.88;6244564;22;20031;-51
2022/01/02 06:02:22;;;;;;;9.07;1.80;;;;;;;12.27;100.00;98836.78;6245597;22;20031;-50
2022/01/02 06:05:25;;;;;;;1.23;0.43;;;;;;;12.20;100.00;98852.00;6245944;22;20032;-50
2022/01/02 06:08:29;;;;;;;10.75;0.80;;;;;;;12.19;100.00;98851.25;6246004;22;20023;-50
2022/01/02 06:11:32;;;;;;;0.65;0.10;;;;;;;12.12;100.00;98853.81;6245315;22;20023;-50
2022/01/02 06:14:36;;;;;;;0.95;0.52;;;;;;;12.00;100.00;98849.50;6245278;22;20051;-50
2022/01/02 06:17:40;;;;;;;0.47;0.47;;;;;;;11.91;100.00;98870.06;6244762;22;20047;-50
2022/01/02 06:20:43;;;;;;;0.20;0.20;;;;;;;11.88;100.00;98865.50;6243829;22;20027;-49
2022/01/02 06:23:47;;;;;;;5.78;0.50;;;;;;;11.87;100.00;98863.97;6243928;22;20031;-49
2022/01/02 06:26:50;;;;;;;3.05;0.50;;;;;;;11.81;100.00;98860.44;6244100;22;20023;-50
2022/01/02 06:29:53;;;;;;;0.10;0.10;;;;;;;11.73;100.00;98865.00;6245152;22;20023;-49
2022/01/02 06:32:57;;;;;;;0.22;0.15;;;;;;;11.64;100.00;98873.59;6244161;22;20027;-50
2022/01/02 06:36:00;;;;;;;7.93;0.90;;;;;;;11.51;100.00;98875.34;6244292;22;20023;-49
2022/01/02 06:39:03;;;;;;;0.35;0.10;;;;;;;11.50;100.00;98880.16;6244080;22;20043;-49
2022/01/02 06:42:07;;;;;;;0.20;0.20;;;;;;;11.46;100.00;98879.66;6243429;22;20465;-49
2022/01/02 06:45:11;;;;;;;0.63;0.35;;;;;;;11.36;100.00;98884.72;6235478;22;20035;-49
2022/01/02 06:48:14;;;;;;;0.10;0.10;;;;;;;11.31;100.00;98890.28;6243454;22;20027;-49
2022/01/02 06:51:18;;;;;;;0.20;0.20;;;;;;;11.18;100.00;98881.63;6243701;22;20072;-50
2022/01/02 06:54:21;;;;;;;0.17;0.17;;;;;;;10.96;100.00;98887.16;6246057;22;20452;-49
2022/01/02 06:57:25;;;;;;;0.10;0.10;;;;;;;10.95;100.00;98880.81;6243765;22;20031;-50
2022/01/02 07:00:29;;;;;;;0.57;0.57;;;;;;;10.84;100.00;98880.00;6245267;22;20028;-50
2022/01/02 07:03:33;;;;;;;0.10;0.10;;;;;;;10.86;100.00;98880.28;6244280;22;20472;-49
2022/01/02 07:06:36;;;;;;;0.10;0.00;;;;;;;10.83;100.00;98895.97;6245060;22;20034;-50
2022/01/02 07:09:40;;;;;;;0.17;0.08;;;;;;;10.66;100.00;98904.25;6244204;22;20472;-49
2022/01/02 07:12:44;;;;;;;0.10;0.00;;;;;;;10.75;100.00;98896.94;6243206;22;20023;-49
2022/01/02 07:15:47;;;;;;;0.20;0.20;;;;;;;10.75;100.00;98894.91;6243682;22;20492;-49
2022/01/02 07:18:51;;;;;;;0.10;0.00;;;;;;;10.76;100.00;98896.47;6243970;22;20031;-49
2022/01/02 07:21:55;;;;;;;0.20;0.20;;;;;;;10.69;100.00;98891.34;6243775;22;20023;-49
2022/01/02 07:24:58;;;;;;;0.10;0.00;;;;;;;10.66;100.00;98897.91;6242969;22;20472;-49
2022/01/02 07:28:01;;;;;;;0.40;0.10;;;;;;;10.56;100.00;98900.16;6243755;22;20027;-49
2022/01/02 07:31:04;;;;;;;0.10;0.00;;;;;;;10.48;100.00;98893.53;6243347;22;20480;-49
2022/01/02 07:34:08;;;;;;;0.10;0.10;;;;;;;10.43;100.00;98905.41;6242777;22;20031;-49
2022/01/02 07:37:11;;;;;;;0.10;0.03;;;;;;;10.34;100.00;98908.38;6236445;22;20357;-49
2022/01/02 07:40:15;;;;;;;0.10;0.10;;;;;;;10.40;100.00;98916.75;6243758;22;20027;-49
2022/01/02 07:43:18;;;;;;;0.10;0.00;;;;;;;10.65;100.00;98919.41;6243090;22;20052;-49
2022/01/02 07:46:22;;;;;;;0.10;0.10;;;;;;;10.86;100.00;98917.25;6245425;22;20027;-49
2022/01/02 07:49:25;;;;;;;0.10;0.10;;;;;;;11.06;100.00;98919.09;6244436;22;20043;-49
2022/01/02 07:52:29;;;;;;;0.10;0.10;;;;;;;11.10;100.00;98908.47;6242974;22;20023;-51
2022/01/02 07:55:32;;;;;;;0.10;0.00;;;;;;;11.10;100.00;98909.25;6243284;22;20027;-49
2022/01/02 07:58:36;;;;;;;0.10;0.00;;;;;;;11.13;100.00;98913.78;6243485;22;20028;-49
2022/01/02 08:01:40;;;;;;;1.75;0.80;;;;;;;11.16;100.00;98918.38;6243516;22;20046;-49
2022/01/02 08:04:43;;;;;;;0.10;0.10;;;;;;;11.20;100.00;98912.53;6243067;22;20027;-49
2022/01/02 08:07:47;;;;;;;0.10;0.10;;;;;;;11.08;100.00;98913.78;6242464;22;20023;-49
2022/01/02 08:10:50;;;;;;;0.10;0.08;;;;;;;10.93;100.00;98921.59;6243675;22;20027;-49
2022/01/02 08:13:54;;;;;;;0.10;0.00;;;;;;;10.83;100.00;98932.16;6242603;22;20068;-49
2022/01/02 08:16:57;;;;;;;0.32;0.20;;;;;;;10.68;100.00;98937.94;6243678;22;20023;-49
2022/01/02 08:20:00;;;;;;;0.40;0.40;;;;;;;10.68;100.00;98934.38;6242451;22;20023;-49
2022/01/02 08:23:04;;;;;;;1.00;0.20;;;;;;;10.68;100.00;98932.34;6242581;22;20047;-49
2022/01/02 08:26:07;;;;;;;0.10;0.00;;;;;;;10.58;100.00;98928.25;6242186;22;20027;-49
2022/01/02 08:29:10;;;;;;;0.20;0.20;;;;;;;10.54;100.00;98936.09;6243281;22;20027;-49
2022/01/02 08:32:14;;;;;;;3.85;0.40;;;;;;;10.51;100.00;98942.66;6241782;22;20440;-49
2022/01/02 08:35:17;;;;;;;0.10;0.08;;;;;;;10.52;100.00;98949.75;6242162;22;20023;-49
2022/01/02 08:38:21;;;;;;;0.10;0.00;;;;;;;10.52;100.00;98944.19;6243604;22;20031;-49
2022/01/02 08:41:25;;;;;;;0.10;0.10;;;;;;;10.55;100.00;98947.97;6244022;22;20045;-49
2022/01/02 08:44:28;;;;;;;0.32;0.15;;;;;;;10.63;100.00;98955.34;6243073;22;20039;-49
2022/01/02 08:47:32;;;;;;;0.10;0.10;;;;;;;10.72;100.00;98956.44;6243803;22;20023;-49
2022/01/02 08:50:35;;;;;;;0.80;0.20;;;;;;;10.81;100.00;98961.78;6243376;22;20027;-49
2022/01/02 08:53:39;;;;;;;2.00;0.70;;;;;;;10.84;100.00;98975.47;6243586;22;20043;-49
2022/01/02 08:56:43;;;;;;;0.10;0.10;;;;;;;10.82;100.00;98983.56;6242381;22;20031;-49
2022/01/02 08:59:47;;;;;;;1.83;0.10;;;;;;;10.76;100.00;98980.00;6243182;22;20035;-49
2022/01/02 09:02:50;;;;;;;0.10;0.10;;;;;;;10.67;100.00;98977.41;6241596;22;20054;-49
2022/01/02 09:05:53;;;;;;;0.10;0.10;;;;;;;10.63;100.00;98974.09;6242359;22;20035;-49
2022/01/02 09:08:56;;;;;;;0.10;0.10;;;;;;;10.63;100.00;98968.53;6242909;22;20047;-49
2022/01/02 09:12:00;;;;;;;0.10;0.10;;;;;;;10.64;100.00;98968.03;6243299;22;20023;-49
2022/01/02 09:15:03;;;;;;;0.10;0.10;;;;;;;10.63;100.00;98965.75;6242153;22;20043;-49
2022/01/02 09:18:07;;;;;;;1.75;0.10;;;;;;;10.71;100.00;98963.25;6242337;22;20047;-49
2022/01/02 09:21:11;;;;;;;0.10;0.00;;;;;;;10.68;100.00;98960.19;6242288;22;20031;-49
2022/01/02 09:24:14;;;;;;;1.30;0.40;;;;;;;10.70;100.00;98967.31;6243142;22;20028;-49
2022/01/02 09:27:18;;;;;;;1.75;0.55;;;;;;;10.78;100.00;98969.13;6242107;22;20421;-49
2022/01/02 09:30:21;;;;;;;2.08;0.50;;;;;;;10.94;100.00;98973.22;6244170;22;20031;-49
2022/01/02 09:33:25;;;;;;;3.50;0.20;;;;;;;11.05;100.00;98973.28;6243952;22;20028;-49
2022/01/02 09:36:29;;;;;;;1.08;0.40;;;;;;;11.07;100.00;98967.97;6243724;22;20042;-49
2022/01/02 09:39:32;;;;;;;0.28;0.10;;;;;;;11.02;100.00;98963.16;6242072;22;20356;-49
2022/01/02 09:42:39;;;;;;;0.15;0.15;;;;;;;11.00;100.00;98962.91;6243527;22;20019;-49
2022/01/02 09:45:45;;;;;;;0.13;0.13;;;;;;;11.08;100.00;98978.63;6242922;22;20028;-49
2022/01/02 09:48:51;;;;;;;0.10;0.10;;;;;;;11.08;100.00;98967.50;6242827;22;20101;-49
2022/01/02 09:51:54;;;;;;;0.10;0.08;;;;;;;11.13;100.00;98969.53;6242218;22;20023;-49
2022/01/02 09:54:58;;;;;;;0.20;0.20;;;;;;;11.26;100.00;98977.44;6242026;22;20353;-49
2022/01/02 09:58:04;;;;;;;0.10;0.00;;;;;;;11.21;100.00;98980.97;6233619;22;20031;-49
2022/01/02 10:01:07;;;;;;;4.47;0.40;;;;;;;11.22;100.00;98972.09;6235373;22;20024;-49
2022/01/02 10:04:10;;;;;;;9.23;0.93;;;;;;;11.23;100.00;98970.06;6242813;22;20032;-49
2022/01/02 10:07:33;;;;;;;20.23;3.08;;;;;;;11.16;100.00;98962.19;6242019;22;20043;-49
2022/01/02 10:10:37;;;;;;;0.82;0.55;;;;;;;11.18;100.00;98948.50;6241247;22;20480;-50
2022/01/02 10:14:02;;;;;;;13.45;2.55;;;;;;;11.19;100.00;98950.81;6242273;22;20031;-49
2022/01/02 10:17:05;;;;;;;18.30;3.58;;;;;;;11.22;100.00;98949.03;6243337;22;20031;-49
2022/01/02 10:20:15;;;;;;;5.60;1.33;;;;;;;11.15;100.00;98972.56;6243678;22;20026;-49
2022/01/02 10:23:23;;;;;;;10.20;1.70;;;;;;;11.14;100.00;98967.50;6239268;22;20027;-50
2022/01/02 10:26:26;;;;;;;9.35;1.58;;;;;;;11.14;100.00;98981.44;6244510;22;20526;-49
2022/01/02 10:29:44;;;;;;;7.68;2.20;;;;;;;11.14;100.00;98975.88;6245131;22;20031;-50
2022/01/02 10:32:48;;;;;;;6.13;2.45;;;;;;;10.99;100.00;98969.72;6242992;22;20031;-49
2022/01/02 10:36:00;;;;;;;0.40;0.40;;;;;;;10.87;100.00;98963.31;6243958;22;20032;-49
2022/01/02 10:39:19;;;;;;;1.23;1.05;;;;;;;10.82;100.00;98961.28;6242776;22;20023;-50
2022/01/02 10:42:23;;;;;;;3.28;0.63;;;;;;;11.18;100.00;98959.66;6243387;22;20353;-49
2022/01/02 10:45:35;;;;;;;1.92;0.73;;;;;;;11.25;100.00;98954.38;6243320;22;20031;-49
2022/01/02 10:48:40;;;;;;;2.20;0.75;;;;;;;11.07;100.00;98954.81;6243940;22;20027;-49
2022/01/02 10:51:44;;;;;;;2.15;0.90;;;;;;;11.23;100.00;98961.72;6243636;22;20027;-49
2022/01/02 10:54:48;;;;;;;0.47;0.32;;;;;;;11.23;100.00;98951.34;6243796;22;20027;-49
2022/01/02 10:57:54;;;;;;;0.30;0.30;;;;;;;11.37;100.00;98955.94;6244027;22;20047;-49
2022/01/02 11:01:02;;;;;;;1.65;0.75;;;;;;;11.45;100.00;98950.63;6243790;22;20480;-49
2022/01/02 11:04:08;;;;;;;0.80;0.50;;;;;;;11.62;100.00;98947.88;6243406;22;20517;-49
2022/01/02 11:07:16;;;;;;;3.65;0.75;;;;;;;11.69;100.00;98930.69;6243070;22;20047;-49
2022/01/02 11:10:21;;;;;;;2.85;0.65;;;;;;;11.83;100.00;98941.59;6211272;23;20068;-50
2022/01/02 11:13:25;;;;;;;4.03;1.05;;;;;;;12.12;100.00;98926.38;6241160;22;20365;-49
2022/01/02 11:16:33;;;;;;;1.05;0.52;;;;;;;12.29;100.00;98920.78;6244713;22;20031;-50
2022/01/02 11:19:37;;;;;;;1.92;0.45;;;;;;;12.39;100.00;98916.44;6243688;22;20028;-50
2022/01/02 11:22:52;;;;;;;1.05;0.10;;;;;;;12.39;100.00;98916.44;6243042;22;20464;-49
2022/01/02 11:26:32;;;;;;;0.45;0.28;;;;;;;12.39;100.00;98908.81;6241546;22;20357;-49
2022/01/02 11:29:36;;;;;;;12.40;0.85;;;;;;;12.48;100.00;98899.41;6242438;22;20043;-50
2022/01/02 11:32:40;;;;;;;0.32;0.22;;;;;;;12.58;100.00;98903.47;6243873;22;20027;-49
2022/01/02 11:35:47;;;;;;;4.78;1.38;;;;;;;12.61;100.00;98902.41;6243651;22;20030;-49
2022/01/02 11:39:11;;;;;;;3.35;0.35;;;;;;;12.85;100.00;98897.00;6241025;22;20023;-49
2022/01/02 11:42:38;;;;;;;1.20;0.57;;;;;;;13.11;100.00;98877.09;6242093;22;20031;-49
2022/01/02 11:45:43;;;;;;;1.83;0.55;;;;;;;13.21;100.00;98883.91;6241833;22;20039;-49
2022/01/02 11:49:05;;;;;;;2.28;1.23;;;;;;;13.28;100.00;98881.31;6243042;22;20057;-50
2022/01/02 11:52:22;;;;;;;1.63;0.82;;;;;;;13.25;100.00;98876.78;6235445;22;20361;-49
2022/01/02 11:55:25;;;;;;;2.08;0.57;;;;;;;13.39;100.00;98867.25;6243013;22;20031;-49
2022/01/02 11:58:38;;;;;;;1.58;0.90;;;;;;;13.47;100.00;98859.09;6245070;22;20031;-49
2022/01/02 12:01:49;;;;;;;1.40;0.63;;;;;;;13.59;100.00;98866.09;6243718;22;20027;-49
2022/01/02 12:05:03;;;;;;;3.97;1.27;;;;;;;13.76;100.00;98863.16;6243175;22;20039;-49
2022/01/02 12:08:07;;;;;;;0.50;0.28;;;;;;;13.64;100.00;98849.25;6243041;22;20039;-49
2022/01/02 12:11:41;;;;;;;0.80;0.32;;;;;;;13.59;100.00;98844.50;6243537;22;20027;-49
2022/01/02 12:14:53;;;;;;;0.40;0.30;;;;;;;13.53;100.00;98854.19;6242142;22;20027;-49
2022/01/02 12:18:15;;;;;;;1.23;0.85;;;;;;;13.46;100.00;98840.78;6243563;22;20027;-49
2022/01/02 12:21:18;;;;;;;0.10;0.00;;;;;;;13.64;100.00;98840.13;6237454;22;20027;-49
2022/01/02 12:24:30;;;;;;;0.40;0.40;;;;;;;13.74;100.00;98843.34;6244579;22;20022;-50
2022/01/02 12:27:34;;;;;;;5.90;0.52;;;;;;;13.74;100.00;98832.16;6244011;22;20023;-49
2022/01/02 12:30:40;;;;;;;2.28;0.63;;;;;;;13.73;100.00;98831.38;6243912;22;20035;-49
2022/01/02 12:33:45;;;;;;;11.52;1.17;;;;;;;13.62;100.00;98818.25;6243026;22;20030;-49
2022/01/02 12:36:50;;;;;;;4.80;2.28;;;;;;;13.52;100.00;98810.72;6243625;22;20043;-49
2022/01/02 12:39:54;;;;;;;0.77;0.45;;;;;;;13.48;100.00;98808.22;6242861;22;20027;-49
2022/01/02 12:42:58;;;;;;;1.70;0.30;;;;;;;13.47;100.00;98803.88;6243150;22;20068;-49
2022/01/02 12:46:01;;;;;;;1.05;0.50;;;;;;;13.40;100.00;98793.28;6243244;22;20027;-49
2022/01/02 12:49:13;;;;;;;2.25;0.88;;;;;;;13.44;100.00;98799.34;6242747;22;20456;-49
2022/01/02 12:52:18;;;;;;;0.17;0.13;;;;;;;13.54;100.00;98797.72;6243127;22;20027;-49
2022/01/02 12:55:22;;;;;;;9.43;1.90;;;;;;;13.71;100.00;98783.59;6242742;22;20476;-50
2022/01/02 12:58:25;;;;;;;0.38;0.17;;;;;;;13.78;100.00;98780.22;6244383;22;20488;-49
2022/01/02 13:01:30;;;;;;;7.85;1.33;;;;;;;13.74;100.00;98776.19;6242366;22;20349;-49
2022/01/02 13:04:35;;;;;;;7.82;1.08;;;;;;;13.68;100.00;98771.41;6243319;22;20349;-49
2022/01/02 13:07:39;;;;;;;2.10;0.30;;;;;;;13.62;100.00;98770.69;6243245;22;20031;-49
2022/01/02 13:10:43;;;;;;;9.38;3.13;;;;;;;13.51;100.00;98767.25;6243363;22;20028;-49
2022/01/02 13:13:49;;;;;;;6.10;2.05;;;;;;;13.40;100.00;98754.13;6242831;22;20341;-49
2022/01/02 13:16:53;;;;;;;17.90;2.28;;;;;;;13.35;100.00;98743.75;6243275;22;20460;-49
2022/01/02 13:20:12;;;;;;;6.32;1.08;;;;;;;13.32;100.00;98746.84;6242034;22;20032;-49
2022/01/02 13:23:16;;;;;;;1.75;0.57;;;;;;;13.35;100.00;98740.94;6243121;22;20027;-49
2022/01/02 13:26:20;;;;;;;2.80;0.55;;;;;;;13.31;100.00;98734.88;6242026;22;20076;-50
2022/01/02 13:29:26;;;;;;;1.10;0.60;;;;;;;13.38;100.00;98741.94;6243576;22;20345;-50
2022/01/02 13:32:38;;;;;;;1.95;0.82;;;;;;;13.30;100.00;98727.75;6243059;22;20028;-50
2022/01/02 13:35:41;;;;;;;0.65;0.65;;;;;;;13.27;100.00;98728.06;6243286;22;20082;-50
2022/01/02 13:38:52;;;;;;;2.15;0.25;;;;;;;13.18;100.00;98717.97;6242183;22;20023;-50
2022/01/02 13:41:55;;;;;;;0.85;0.35;;;;;;;13.22;100.00;98718.44;6242311;22;20035;-50
2022/01/02 13:45:08;;;;;;;0.20;0.20;;;;;;;13.25;100.00;98714.59;6242241;22;20023;-50
2022/01/02 13:48:17;;;;;;;8.07;0.52;;;;;;;13.28;100.00;98716.34;6242883;22;20047;-50
2022/01/02 13:51:21;;;;;;;1.70;0.20;;;;;;;13.26;100.00;98715.34;6243398;22;20027;-51
2022/01/02 13:54:27;;;;;;;2.75;0.68;;;;;;;13.15;100.00;98713.41;6244907;22;20329;-52
2022/01/02 13:57:31;;;;;;;1.25;0.32;;;;;;;13.08;100.00;98716.75;6245482;22;20329;-51
2022/01/02 14:00:35;;;;;;;5.45;1.48;;;;;;;13.09;100.00;98712.69;6244993;22;20471;-51
2022/01/02 14:03:39;;;;;;;0.60;0.30;;;;;;;12.98;100.00;98706.38;6243854;22;20031;-50
2022/01/02 14:06:43;;;;;;;8.75;0.57;;;;;;;13.01;100.00;98700.53;6243409;22;20333;-50
2022/01/02 14:09:51;;;;;;;0.82;0.30;;;;;;;12.91;100.00;98702.13;6244516;22;20023;-50
2022/01/02 14:12:58;;;;;;;1.98;0.93;;;;;;;12.85;100.00;98702.19;6244424;22;20244;-49
2022/01/02 14:16:03;;;;;;;2.72;1.13;;;;;;;12.80;100.00;98702.19;6244730;22;20023;-48
2022/01/02 14:19:07;;;;;;;22.23;3.08;;;;;;;12.76;100.00;98696.13;6244308;22;20023;-50
2022/01/02 14:22:13;;;;;;;2.70;0.68;;;;;;;12.77;100.00;98697.66;6244458;22;20033;-48
2022/01/02 14:25:17;;;;;;;5.20;1.90;;;;;;;12.76;100.00;98693.34;6243437;22;20031;-48
2022/01/02 14:28:20;;;;;;;1.38;0.50;;;;;;;12.73;100.00;98691.59;6243877;22;20353;-48
2022/01/02 14:31:30;;;;;;;3.97;1.08;;;;;;;12.75;100.00;98705.81;6244307;22;20028;-48